Impacts TAF Board INFO
FOR SITUATIONAL AWARENESS. NOT TO BE USED FOR FLIGHT PLANNING PURPOSES.
IDs:

KMDW - Chicago/Midway Intl, IL, US

Issued at 2113 UTC 19 Jun 2018
Updated at 2204 UTC 19 Jun 2018
Potential Impact None Slight Moderate High
Time2153Z 19/23Z 20/00Z 20/01Z 20/02Z 20/03Z 20/04Z 20/05Z 20/06Z 20/07Z 20/08Z 20/09Z 20/10Z 20/11Z>>
Type OBS PRVL PRVL
  [TEMP]  
PRVL
  [TEMP]  
PRVL PRVL PRVL PRVL PRVL PRVL
  [TEMP]  
PRVL
  [TEMP]  
PRVL
  [TEMP]  
PRVL
  [TEMP]  
PRVL
VIS 10 >6 >6
  [4]  
>6
  [4]  
5 5 5 4 4 4
  [2]  
4
  [2]  
4
  [2]  
4
  [2]  
4
CIG 180 50 50
  [15]  
50
  [15]  
9 9 9 7 7 7
  [4]  
7
  [4]  
7
  [4]  
7
  [4]  
7
Cover OVC BKN BKN
  [BKN]  
BKN
  [BKN]  
BKN BKN BKN OVC OVC OVC
  [OVC]  
OVC
  [OVC]  
OVC
  [OVC]  
OVC
  [OVC]  
OVC
FltCat VFR VFR VFR
  [MVFR]  
VFR
  [MVFR]  
IFR IFR IFR IFR IFR IFR
  [LIFR]  
IFR
  [LIFR]  
IFR
  [LIFR]  
IFR
  [LIFR]  
IFR
WX -- VCTS VCTS
  [-TSRA BR]  
VCTS
  [-TSRA BR]  
BR BR BR BR BR BR
  [BR]  
BR
  [BR]  
BR
  [BR]  
BR
  [BR]  
BR
WDir 10 40 40
[40]
40
[40]
30 30 30 30 30 30
[30]
30
[30]
30
[30]
30
[30]
30
WSpd 7 9 9
  [9]  
9
  [9]  
6 6 6 6 6 6
  [6]  
6
  [6]  
6
  [6]  
6
  [6]  
6
WGst -- -- --
  [--]  
--
  [--]  
-- -- -- -- -- --
  [--]  
--
  [--]  
--
  [--]  
--
  [--]  
--

Raw TAF
KMDW 192113Z 1921/2024 04009KT P6SM VCTS FEW004 BKN050CB BKN250
  TEMPO 2000/2002 4SM -TSRA BR SCT008 BKN015CB
  FM200200 03006KT 5SM BR BKN009
  FM200500 03006KT 4SM BR OVC007
  TEMPO 2007/2011 2SM BR OVC004
  FM201500 04007KT P6SM BKN015
  FM201900 04007KT P6SM SCT015 BKN050


Raw METAR
KMDW 192153Z 01007KT 10SM FEW005 FEW033 SCT080 OVC180 23/19 A2988 RMK AO2 SLP112 T02330189
KMDW 192053Z 04010KT 10SM FEW003 FEW040 BKN065CB OVC250 24/19 A2990 RMK AO2 LTG DSNT S AND SW SLP118 OCNL LTGIC DSNT S-SW CB DSNT S-SW CBMAM OHD MOV NE T02440194 55007
KMDW 191953Z 08010KT 10SM FEW003 SCT040 SCT095 BKN250 27/21 A2988 RMK AO2 LTG DSNT SW SLP109 CB DSNT SE-SW T02670206
KMDW 191940Z 08010KT 10SM FEW003 SCT040 SCT095 BKN250 28/21 A2988 RMK AO2 LTG DSNT SW CB DSNT SE-S T02780206

METAR Board
Radar Display
Forecast Discussion

FOR SITUATIONAL AWARENESS. NOT TO BE USED FOR FLIGHT PLANNING PURPOSES.